CheckWX is a tool to help pilots better visualize weather data.  It is not intended as a substitute for an official pre-flight weather briefing.

11:26:55 UTC

KRWF METAR
Redwood Falls Municipal Airport
Redwood Falls, Minnesota, USA
Current

34 mins ago

KRWF 151053Z AUTO 29009KT 10SM CLR 03/02 A2980 RMK AO2 SLP099 T00280017 $
Observed
Oct-15 @ 10:53 UTC
Wind
  • 290° at 9 KTS
Visibility
10 SM
Flight Rules
VFR
Cloud Levels
  • Clear skies
Temperature
C / 37°F
Dewpoint
C / 36°F
Humidity
93%
Altimeter
29.8" Hg
Pressure
1009.12 hPa
Previous

2 hours ago

KRWF 150953Z AUTO 32006KT 10SM 03/02 A2978 RMK AO2 SLP089 T00330022 $
Observed
Oct-15 @ 09:53 UTC
Wind
  • 320° at 6 KTS
Visibility
10 SM
Temperature
C / 37°F
Dewpoint
C / 36°F
Humidity
93%
Altimeter
29.78" Hg
Pressure
1008.42 hPa
Previous

3 hours ago

KRWF 150853Z AUTO 27003KT 10SM CLR 04/02 A2976 RMK AO2 SLP084 T00390017 $
Observed
Oct-15 @ 08:53 UTC
Wind
  • 270° at 3 KTS
Visibility
10 SM
Flight Rules
VFR
Cloud Levels
  • Clear skies
Temperature
C / 39°F
Dewpoint
C / 36°F
Humidity
87%
Altimeter
29.76" Hg
Pressure
1007.82 hPa